EGHILFRD

Guest
Details From EGHI - Southampton
To LFRD - Dinard Pleurtuit-St Malo
Flight Number -
Tags decoded
Created
Modified
Stats Distance 145 nm / 268 km
Max Altitude 0 ft / 0 m
Waypoints 2
Social Downloads 0
Likes 0
Share VATSIM

Download

Looking for another format? Having issues loading an existing format? Contact us
Advertisement - Login to hide

Notes

Requested: EGHI LFRD

Route

EGHI LFRD

ID Type Via Altitude (ft/m) Position (lat/lon) Dist (leg/tot) Name
O EGHI APT - 0 / 0 50.95026 / -1.35681 - / 0 nm Southampton
O LFRD APT - 0 / 0 48.58798 / -2.07992 144 / 144 nm Dinard Pleurtuit-St Malo

Altitude Profile

Advertisement - Login to hide

EGHI

Details ICAO EGHI (SOU)
Name Southampton
Region United Kingdom
Timezone Europe/London (UTC+1.0)
Stats Elevation 41 ft / 12 m (AMSL)
Location 50.950300° -1.356790°
Runways 1
Magnetic Variation 0.603° W

METAR

EGHI 201050Z 31004KT 250V010 9999 FEW029 16/09 Q1013

Decode

TAF

Not found

Departure Runways

ID Width Length Bearing (true/mag) Surface Threshold Overrun Markings Lighting
02 121 ft / 37 m 5,651 ft / 1,722 m 19.36° / 19.96° ASPHALT 239 ft / 73 m 66 ft / 20 m UK-PREC-APP CENTERLINE EDGE THRESHOLD MALS
20 121 ft / 37 m 5,651 ft / 1,722 m 199.36° / 199.97° ASPHALT 151 ft / 46 m 0 ft / 0 m UK-PREC-APP CENTERLINE EDGE THRESHOLD MALS

LFRD

Details ICAO LFRD (DNR)
Name Dinard Pleurtuit-St Malo
Region France
Timezone Europe/Paris (UTC+2.0)
Stats Elevation 216 ft / 66 m (AMSL)
Location 48.588000° -2.079920°
Runways 2
Magnetic Variation 0.599° W

METAR

LFRD 201100Z AUTO 30009KT 9999 SCT012 BKN068 OVC130 15/11 Q1014 TEMPO 4000 SHRA BKN020TCU

Decode

TAF

TAF AMD LFRD 201006Z 2010/2106 30008KT 9999 BKN010 BECMG 2010/2012 BKN020 PROB30 TEMPO 2012/2016 4000 SHRA BKN020TCU PROB40 TEMPO 2012/2106 BKN008 BECMG 2019/2021 32005KT BECMG 2022/2024 3000 BR TEMPO 2102/2106 0400 FG VV///

Decode

Destination Runways

ID Width Length Bearing (true/mag) Surface Threshold Overrun Markings Lighting
12 148 ft / 45 m 4,909 ft / 1,496 m 115.13° / 115.73° ASPHALT 0 ft / 0 m 0 ft / 0 m APP
17 148 ft / 45 m 7,199 ft / 2,194 m 170.09° / 170.69° ASPHALT 0 ft / 0 m 0 ft / 0 m PREC-APP EDGE THRESHOLD REIL-OMNI
30 148 ft / 45 m 4,909 ft / 1,496 m 295.14° / 295.74° ASPHALT 669 ft / 204 m 0 ft / 0 m APP
35 148 ft / 45 m 7,199 ft / 2,194 m 350.10° / 350.70° ASPHALT 0 ft / 0 m 0 ft / 0 m PREC-APP EDGE THRESHOLD ALSF-I

Approach Navaids

Runway Type Ident Frequency Range Bearing (true/mag) Slope Elevation
35 DME DR 110.75 MHz 27 nm / 50 km - - 216 ft / 66 m (AMSL)
35 GS DR 110.75 MHz 27 nm / 50 km 350.16° / 350.76 ° 3.00° 216 ft / 66 m (AMSL)
35 LOC-ILS DR 110.75 MHz 27 nm / 50 km 350.08° / 350.68 ° - 216 ft / 66 m (AMSL)

Popular Alternatives